Time;durP1;ratioP1;P1;durP2;ratioP2;P2;SDS_P1;SDS_P2;PMS_P1;PMS_P2;Temp;Humidity;BMP_temperature;BMP_pressure;BME280_temperature;BME280_humidity;BME280_pressure;Samples;Min_cycle;Max_cycle;Signal;HPM_P1;HPM_P2
2021/06/25 00:02:04;;;;;;;23.52;6.32;;;;;;;;;;5114888;28;20028;-85
2021/06/25 00:04:30;;;;;;;31.65;7.88;;;;;;;;;;5115583;28;20486;-83
2021/06/25 00:06:56;;;;;;;42.38;14.85;;;;;;;;;;5114094;28;20432;-84
2021/06/25 00:09:22;;;;;;;31.85;9.60;;;;;;;;;;5114736;28;20026;-86
2021/06/25 00:11:49;;;;;;;26.85;8.25;;;;;;;;;;5115187;28;20049;-84
2021/06/25 00:14:20;;;;;;;28.15;7.88;;;;;;;;;;5115260;28;20020;-82
2021/06/25 00:16:46;;;;;;;28.23;6.53;;;;;;;;;;5115059;28;20028;-83
2021/06/25 00:19:13;;;;;;;26.60;6.85;;;;;;;;;;5115272;27;20035;-82
2021/06/25 00:21:39;;;;;;;22.75;5.45;;;;;;;;;;5115271;28;20024;-85
2021/06/25 00:24:05;;;;;;;24.80;7.40;;;;;;;;;;5114882;28;20114;-85
2021/06/25 00:26:31;;;;;;;23.10;5.70;;;;;;;;;;5113752;28;20031;-84
2021/06/25 00:28:57;;;;;;;22.42;7.70;;;;;;;;;;5114930;28;20026;-83
2021/06/25 00:31:24;;;;;;;27.75;7.20;;;;;;;;;;5113732;28;20039;-87
2021/06/25 00:33:50;;;;;;;32.65;7.65;;;;;;;;;;5114941;28;20028;-82
2021/06/25 00:36:16;;;;;;;20.98;7.13;;;;;;;;;;5114920;28;20485;-86
2021/06/25 00:38:42;;;;;;;21.05;6.13;;;;;;;;;;5114442;27;20062;-82
2021/06/25 00:41:08;;;;;;;23.88;6.78;;;;;;;;;;5114559;28;20015;-84
2021/06/25 00:43:34;;;;;;;25.60;7.70;;;;;;;;;;5114727;28;20513;-84
2021/06/25 00:46:00;;;;;;;24.58;7.18;;;;;;;;;;5114538;28;20108;-82
2021/06/25 00:48:27;;;;;;;24.42;6.78;;;;;;;;;;5114694;28;20027;-83
2021/06/25 00:50:53;;;;;;;25.17;6.32;;;;;;;;;;5113483;28;20393;-84
2021/06/25 00:53:19;;;;;;;30.80;7.88;;;;;;;;;;5114392;28;20030;-83
2021/06/25 00:55:45;;;;;;;22.95;7.57;;;;;;;;;;5114558;28;20024;-83
2021/06/25 00:58:15;;;;;;;16.50;6.38;;;;;;;;;;5114015;28;20371;-83
2021/06/25 01:00:41;;;;;;;20.73;5.90;;;;;;;;;;5114537;28;20085;-86
2021/06/25 01:03:07;;;;;;;25.58;6.88;;;;;;;;;;5112824;28;20038;-85
2021/06/25 01:05:34;;;;;;;24.42;6.75;;;;;;;;;;5112991;28;20031;-85
2021/06/25 01:08:00;;;;;;;27.75;7.22;;;;;;;;;;5114078;28;20087;-86
2021/06/25 01:10:26;;;;;;;20.45;6.93;;;;;;;;;;5114291;28;20094;-85
2021/06/25 01:12:53;;;;;;;25.05;5.88;;;;;;;;;;5114177;28;20466;-81
2021/06/25 01:15:19;;;;;;;26.52;6.93;;;;;;;;;;5113846;28;20525;-81
2021/06/25 01:17:45;;;;;;;21.80;6.38;;;;;;;;;;5113993;28;20046;-83
2021/06/25 01:20:12;;;;;;;23.23;7.28;;;;;;;;;;5113789;28;20019;-81
2021/06/25 01:22:40;;;;;;;26.67;7.80;;;;;;;;;;5113968;28;20034;-83
2021/06/25 01:25:07;;;;;;;21.50;6.85;;;;;;;;;;5113808;28;20031;-83
2021/06/25 01:27:34;;;;;;;22.15;6.25;;;;;;;;;;5114106;28;20047;-85
2021/06/25 01:30:00;;;;;;;24.08;5.95;;;;;;;;;;5112576;28;20020;-84
2021/06/25 01:32:26;;;;;;;26.75;6.15;;;;;;;;;;5113730;28;20024;-84
2021/06/25 01:34:52;;;;;;;24.73;7.10;;;;;;;;;;5113684;28;20035;-84
2021/06/25 01:37:19;;;;;;;26.67;7.35;;;;;;;;;;5113261;28;20482;-82
2021/06/25 01:39:50;;;;;;;23.80;7.35;;;;;;;;;;5113745;28;20032;-82
2021/06/25 01:42:16;;;;;;;24.05;6.45;;;;;;;;;;5113427;28;20432;-83
2021/06/25 01:44:42;;;;;;;27.38;8.32;;;;;;;;;;5113555;28;20023;-84
2021/06/25 01:47:08;;;;;;;26.25;7.00;;;;;;;;;;5112081;28;20024;-82
2021/06/25 01:49:36;;;;;;;34.85;6.88;;;;;;;;;;5113434;28;20059;-82
2021/06/25 01:52:03;;;;;;;24.48;7.10;;;;;;;;;;5113385;28;20119;-86
2021/06/25 01:54:29;;;;;;;25.08;7.25;;;;;;;;;;5112029;28;20142;-83
2021/06/25 01:56:55;;;;;;;25.08;6.88;;;;;;;;;;5113283;28;20038;-85
2021/06/25 01:59:22;;;;;;;25.23;7.82;;;;;;;;;;5113186;28;20023;-81
2021/06/25 02:01:48;;;;;;;21.10;6.30;;;;;;;;;;5113047;28;20482;-83
2021/06/25 02:04:14;;;;;;;28.00;7.90;;;;;;;;;;5113117;28;20034;-82
2021/06/25 02:06:40;;;;;;;25.00;6.10;;;;;;;;;;5113248;28;20035;-83
2021/06/25 02:09:07;;;;;;;28.50;7.68;;;;;;;;;;5113172;28;20034;-83
2021/06/25 02:11:33;;;;;;;25.40;6.88;;;;;;;;;;5113060;28;20124;-84
2021/06/25 02:13:59;;;;;;;27.10;6.55;;;;;;;;;;5112017;28;20023;-85
2021/06/25 02:16:25;;;;;;;21.83;6.75;;;;;;;;;;5112773;28;20027;-82
2021/06/25 02:18:51;;;;;;;24.95;7.60;;;;;;;;;;5113112;28;20096;-82
2021/06/25 02:21:17;;;;;;;22.30;7.72;;;;;;;;;;5112979;28;20032;-83
2021/06/25 02:23:43;;;;;;;21.92;6.43;;;;;;;;;;5113119;28;20031;-85
2021/06/25 02:26:09;;;;;;;29.08;6.97;;;;;;;;;;5113209;28;20024;-82
2021/06/25 02:28:36;;;;;;;26.90;6.85;;;;;;;;;;5112817;28;20078;-83
2021/06/25 02:31:02;;;;;;;20.02;7.03;;;;;;;;;;5112919;28;20107;-82
2021/06/25 02:33:28;;;;;;;25.25;7.05;;;;;;;;;;5112737;28;20032;-83
2021/06/25 02:35:54;;;;;;;24.00;6.47;;;;;;;;;;5113063;28;20024;-81
2021/06/25 02:38:20;;;;;;;23.38;6.95;;;;;;;;;;5112399;28;20054;-82
2021/06/25 02:40:46;;;;;;;23.23;6.82;;;;;;;;;;5111632;28;20386;-84
2021/06/25 02:43:12;;;;;;;22.95;6.50;;;;;;;;;;5112972;28;20032;-84
2021/06/25 02:45:38;;;;;;;24.45;7.13;;;;;;;;;;5111404;28;20031;-83
2021/06/25 02:48:05;;;;;;;22.45;7.32;;;;;;;;;;5112994;28;20031;-83
2021/06/25 02:50:31;;;;;;;24.83;6.50;;;;;;;;;;5112656;28;20136;-82
2021/06/25 02:52:58;;;;;;;20.65;7.20;;;;;;;;;;5112806;28;20453;-83
2021/06/25 02:55:24;;;;;;;20.65;6.55;;;;;;;;;;5111426;28;20485;-84
2021/06/25 02:57:50;;;;;;;28.20;7.45;;;;;;;;;;5112822;28;20042;-81
2021/06/25 03:00:17;;;;;;;22.35;6.60;;;;;;;;;;5112577;28;20031;-85
2021/06/25 03:02:43;;;;;;;25.73;6.78;;;;;;;;;;5112520;28;20534;-84
2021/06/25 03:05:11;;;;;;;23.38;6.95;;;;;;;;;;5112776;28;20462;-83
2021/06/25 03:07:37;;;;;;;22.60;6.80;;;;;;;;;;5112424;28;20027;-84
2021/06/25 03:10:04;;;;;;;28.17;7.28;;;;;;;;;;5111453;28;20031;-82
2021/06/25 03:12:31;;;;;;;28.73;7.85;;;;;;;;;;5111023;28;20508;-81
2021/06/25 03:14:57;;;;;;;24.63;7.18;;;;;;;;;;5115287;28;20020;-81
2021/06/25 03:17:23;;;;;;;27.38;7.75;;;;;;;;;;5116429;28;20032;-83
2021/06/25 03:19:49;;;;;;;22.05;7.15;;;;;;;;;;5116272;28;20034;-82
2021/06/25 03:22:15;;;;;;;26.50;7.85;;;;;;;;;;5116463;28;20024;-82
2021/06/25 03:24:41;;;;;;;27.75;8.30;;;;;;;;;;5116188;28;20027;-82
2021/06/25 03:27:08;;;;;;;28.80;6.95;;;;;;;;;;5116256;27;20081;-86
2021/06/25 03:29:34;;;;;;;24.45;7.13;;;;;;;;;;5116040;27;20410;-84
2021/06/25 03:32:00;;;;;;;23.60;6.40;;;;;;;;;;5116152;28;20031;-83
2021/06/25 03:34:26;;;;;;;22.63;6.32;;;;;;;;;;5114841;28;20122;-85
2021/06/25 03:36:52;;;;;;;24.83;7.20;;;;;;;;;;5115849;28;20539;-81
2021/06/25 03:39:19;;;;;;;23.85;8.07;;;;;;;;;;5115765;28;20498;-81
2021/06/25 03:41:45;;;;;;;24.75;7.38;;;;;;;;;;5114618;28;20398;-84
2021/06/25 03:44:11;;;;;;;30.33;8.30;;;;;;;;;;5115987;28;20058;-83
2021/06/25 03:46:37;;;;;;;24.85;7.50;;;;;;;;;;5115736;28;20027;-82
2021/06/25 03:49:04;;;;;;;23.83;7.70;;;;;;;;;;5115882;28;20026;-86
2021/06/25 03:51:30;;;;;;;26.48;7.38;;;;;;;;;;5115874;28;20023;-81
2021/06/25 03:53:56;;;;;;;32.50;8.00;;;;;;;;;;5115570;28;20474;-85
2021/06/25 03:56:22;;;;;;;25.52;7.47;;;;;;;;;;5115690;28;20020;-85
2021/06/25 03:58:49;;;;;;;28.38;8.20;;;;;;;;;;5115351;28;20073;-87
2021/06/25 04:01:16;;;;;;;27.45;7.15;;;;;;;;;;5115745;28;20023;-85
2021/06/25 04:03:43;;;;;;;23.48;6.88;;;;;;;;;;5114199;28;20051;-82
2021/06/25 04:06:09;;;;;;;28.33;7.90;;;;;;;;;;5115497;28;20056;-87
2021/06/25 04:08:36;;;;;;;28.27;6.97;;;;;;;;;;5115413;28;20108;-82
2021/06/25 04:11:03;;;;;;;29.40;7.28;;;;;;;;;;5115124;28;20034;-85
2021/06/25 04:13:30;;;;;;;27.38;7.15;;;;;;;;;;5115018;28;20020;-81
2021/06/25 04:15:56;;;;;;;28.10;7.45;;;;;;;;;;5115050;28;20027;-82
2021/06/25 04:18:23;;;;;;;23.48;7.22;;;;;;;;;;5115130;28;20038;-84
2021/06/25 04:20:50;;;;;;;27.45;9.32;;;;;;;;;;5113728;28;20039;-81
2021/06/25 04:23:16;;;;;;;26.60;7.03;;;;;;;;;;5115209;28;20065;-82
2021/06/25 04:25:42;;;;;;;25.30;8.02;;;;;;;;;;5114713;28;20081;-83
2021/06/25 04:28:08;;;;;;;28.30;8.02;;;;;;;;;;5114880;28;20057;-83
2021/06/25 04:30:37;;;;;;;24.95;8.25;;;;;;;;;;5114972;28;20478;-86
2021/06/25 04:33:03;;;;;;;26.88;7.63;;;;;;;;;;5114548;28;20107;-82
2021/06/25 04:35:30;;;;;;;22.10;7.75;;;;;;;;;;5115009;28;20040;-84
2021/06/25 04:38:01;;;;;;;28.13;7.30;;;;;;;;;;5114176;28;20126;-84
2021/06/25 04:40:27;;;;;;;28.08;7.97;;;;;;;;;;5113321;28;20027;-79
2021/06/25 04:42:53;;;;;;;27.23;7.68;;;;;;;;;;5114414;28;20040;-80
2021/06/25 04:45:19;;;;;;;28.05;6.93;;;;;;;;;;5113334;28;20055;-80
2021/06/25 04:47:45;;;;;;;20.67;7.05;;;;;;;;;;5114110;28;20035;-79
2021/06/25 04:50:12;;;;;;;24.73;7.80;;;;;;;;;;5114465;28;20020;-78
2021/06/25 04:52:39;;;;;;;19.60;6.97;;;;;;;;;;5114364;28;20471;-84
2021/06/25 04:55:06;;;;;;;22.50;7.32;;;;;;;;;;5114058;28;20106;-79
2021/06/25 04:57:32;;;;;;;26.02;7.90;;;;;;;;;;5111445;28;20165;-81
2021/06/25 04:59:58;;;;;;;21.20;8.23;;;;;;;;;;5108445;28;20497;-82
2021/06/25 05:02:25;;;;;;;21.58;6.45;;;;;;;;;;5114086;28;20036;-80
2021/06/25 05:04:51;;;;;;;21.88;7.90;;;;;;;;;;5104913;28;20478;-84
2021/06/25 05:07:18;;;;;;;21.08;7.05;;;;;;;;;;5093586;28;20383;-83
2021/06/25 05:09:50;;;;;;;27.05;9.43;;;;;;;;;;5093572;28;20035;-84
2021/06/25 05:12:16;;;;;;;21.30;6.82;;;;;;;;;;5093606;28;20379;-85
2021/06/25 05:14:42;;;;;;;25.13;7.35;;;;;;;;;;5093572;28;20028;-83
2021/06/25 05:17:09;;;;;;;23.40;6.97;;;;;;;;;;5093177;28;20027;-81
2021/06/25 05:19:35;;;;;;;21.92;7.55;;;;;;;;;;5093197;28;20063;-84
2021/06/25 05:22:01;;;;;;;25.27;7.35;;;;;;;;;;5092741;28;20081;-82
2021/06/25 05:24:27;;;;;;;24.13;7.50;;;;;;;;;;5107680;28;20032;-83
2021/06/25 05:26:53;;;;;;;21.33;7.13;;;;;;;;;;5113482;27;20096;-84
2021/06/25 05:29:19;;;;;;;24.05;8.88;;;;;;;;;;5109764;28;20023;-85
2021/06/25 05:31:45;;;;;;;21.35;7.25;;;;;;;;;;5112357;27;20023;-84
2021/06/25 05:34:12;;;;;;;29.05;9.10;;;;;;;;;;5113648;28;20042;-85
2021/06/25 05:36:41;;;;;;;25.67;7.78;;;;;;;;;;5110475;28;20049;-87
2021/06/25 05:39:07;;;;;;;23.58;8.00;;;;;;;;;;5112939;28;20040;-85
2021/06/25 05:41:39;;;;;;;26.20;8.77;;;;;;;;;;5111686;28;20034;-87
2021/06/25 05:44:05;;;;;;;24.13;7.63;;;;;;;;;;5107537;28;20024;-88
2021/06/25 05:46:31;;;;;;;18.50;6.38;;;;;;;;;;5091060;28;20560;-87
2021/06/25 05:48:58;;;;;;;23.45;7.10;;;;;;;;;;5091232;28;20020;-85
2021/06/25 05:51:33;;;;;;;19.48;7.32;;;;;;;;;;5111449;28;20102;-86
2021/06/25 05:53:59;;;;;;;27.27;6.75;;;;;;;;;;5110800;28;20030;-83
2021/06/25 05:56:25;;;;;;;21.73;6.88;;;;;;;;;;5101724;28;20035;-86
2021/06/25 05:58:51;;;;;;;24.77;7.22;;;;;;;;;;5110261;28;20394;-86
2021/06/25 06:01:17;;;;;;;28.67;9.05;;;;;;;;;;5110422;28;20047;-84
2021/06/25 06:03:45;;;;;;;20.50;7.40;;;;;;;;;;5111517;28;20039;-85
2021/06/25 06:06:14;;;;;;;22.85;7.43;;;;;;;;;;5110599;28;20054;-87
2021/06/25 06:08:40;;;;;;;29.02;7.93;;;;;;;;;;5110460;28;20134;-76
2021/06/25 06:11:07;;;;;;;19.98;6.55;;;;;;;;;;5111766;28;20027;-85
2021/06/25 06:13:33;;;;;;;23.58;7.40;;;;;;;;;;5111433;28;20107;-84
2021/06/25 06:15:59;;;;;;;21.00;6.68;;;;;;;;;;5111403;28;20062;-82
2021/06/25 06:21:13;;;;;;;23.60;7.75;;;;;;;;;;5111782;28;20123;-85
2021/06/25 06:32:10;;;;;;;22.77;7.20;;;;;;;;;;5111180;28;20139;-84
2021/06/25 06:34:37;;;;;;;32.37;12.40;;;;;;;;;;5111212;28;20051;-86
2021/06/25 06:37:03;;;;;;;33.70;16.70;;;;;;;;;;5109801;28;20040;-71
2021/06/25 06:39:30;;;;;;;24.38;10.07;;;;;;;;;;5096719;28;20052;-85
2021/06/25 06:41:57;;;;;;;27.88;12.40;;;;;;;;;;5106791;28;20024;-84
2021/06/25 06:44:23;;;;;;;24.75;9.00;;;;;;;;;;5109777;28;20036;-83
2021/06/25 06:46:52;;;;;;;24.70;7.50;;;;;;;;;;5109634;28;20478;-86
2021/06/25 06:49:19;;;;;;;33.58;7.90;;;;;;;;;;5113259;28;20110;-83
2021/06/25 06:51:45;;;;;;;20.40;7.70;;;;;;;;;;5113602;28;20069;-85
2021/06/25 06:54:11;;;;;;;23.05;7.00;;;;;;;;;;5113757;28;20047;-84
2021/06/25 06:56:52;;;;;;;59.28;10.77;;;;;;;;;;5114902;28;20198;-86
2021/06/25 06:59:18;;;;;;;24.50;8.60;;;;;;;;;;5115482;27;20035;-85
2021/06/25 07:01:44;;;;;;;37.65;13.95;;;;;;;;;;5113572;28;20031;-85
2021/06/25 07:04:10;;;;;;;29.75;9.35;;;;;;;;;;5113830;28;20038;-84
2021/06/25 07:06:36;;;;;;;21.60;8.05;;;;;;;;;;5114996;28;20041;-83
2021/06/25 07:09:03;;;;;;;21.13;8.50;;;;;;;;;;5115166;28;20530;-84
2021/06/25 07:11:29;;;;;;;23.27;8.68;;;;;;;;;;5113931;28;20084;-84
2021/06/25 07:13:55;;;;;;;36.65;9.00;;;;;;;;;;5114881;28;20110;-83
2021/06/25 07:16:21;;;;;;;25.20;7.47;;;;;;;;;;5113741;28;20111;-85
2021/06/25 07:18:47;;;;;;;25.45;8.40;;;;;;;;;;5114554;28;20038;-84
2021/06/25 07:21:13;;;;;;;22.92;7.22;;;;;;;;;;5115125;28;20355;-83
2021/06/25 07:23:39;;;;;;;21.27;6.55;;;;;;;;;;5114948;28;20059;-83
2021/06/25 07:26:05;;;;;;;27.67;8.30;;;;;;;;;;5114815;28;20020;-85
2021/06/25 07:28:32;;;;;;;39.65;8.52;;;;;;;;;;5114805;28;20027;-83
2021/06/25 07:30:58;;;;;;;26.48;8.48;;;;;;;;;;5114228;28;20034;-79
2021/06/25 07:33:25;;;;;;;26.27;7.05;;;;;;;;;;5114770;28;20024;-84
2021/06/25 07:35:53;;;;;;;21.55;6.82;;;;;;;;;;5114602;28;20114;-86
2021/06/25 07:38:19;;;;;;;24.48;6.82;;;;;;;;;;5112747;28;20079;-83
2021/06/25 07:40:45;;;;;;;32.17;7.90;;;;;;;;;;5107781;27;20024;-86
2021/06/25 07:43:11;;;;;;;19.75;6.45;;;;;;;;;;5102862;28;20536;-86
2021/06/25 07:45:38;;;;;;;22.75;7.05;;;;;;;;;;5092638;28;20547;-84
2021/06/25 07:48:06;;;;;;;26.05;6.50;;;;;;;;;;5099038;28;20393;-84
2021/06/25 07:50:33;;;;;;;26.25;6.53;;;;;;;;;;5096269;28;20161;-85
2021/06/25 07:52:59;;;;;;;23.63;6.10;;;;;;;;;;5114273;28;20439;-84
2021/06/25 07:55:25;;;;;;;35.45;7.57;;;;;;;;;;5098388;28;20033;-84
2021/06/25 07:57:52;;;;;;;21.33;7.05;;;;;;;;;;5109440;28;20067;-85
2021/06/25 08:00:18;;;;;;;23.40;6.93;;;;;;;;;;5113470;28;20035;-84
2021/06/25 08:02:44;;;;;;;21.27;6.68;;;;;;;;;;5112827;28;20019;-83
2021/06/25 08:05:10;;;;;;;32.17;7.57;;;;;;;;;;5113960;28;20024;-86
2021/06/25 08:07:37;;;;;;;22.00;6.82;;;;;;;;;;5112722;28;20024;-84
2021/06/25 08:10:05;;;;;;;22.38;5.75;;;;;;;;;;5114080;28;20023;-81
2021/06/25 08:12:31;;;;;;;24.90;5.68;;;;;;;;;;5114056;28;20028;-81
2021/06/25 08:14:57;;;;;;;25.13;6.95;;;;;;;;;;5113920;28;20031;-81
2021/06/25 08:17:24;;;;;;;21.23;5.82;;;;;;;;;;5113529;27;20073;-81
2021/06/25 08:19:51;;;;;;;25.38;6.28;;;;;;;;;;5114053;27;20056;-81
2021/06/25 08:22:17;;;;;;;22.67;6.60;;;;;;;;;;5113179;28;20553;-83
2021/06/25 08:24:43;;;;;;;21.00;6.60;;;;;;;;;;5109677;28;20113;-80
2021/06/25 08:27:09;;;;;;;21.27;5.65;;;;;;;;;;5093177;28;20419;-82
2021/06/25 08:29:35;;;;;;;28.38;7.05;;;;;;;;;;5109930;28;20027;-84
2021/06/25 08:32:05;;;;;;;19.95;5.15;;;;;;;;;;5112030;28;20023;-86
2021/06/25 08:34:31;;;;;;;21.30;5.22;;;;;;;;;;5095157;27;20483;-84
2021/06/25 08:36:58;;;;;;;19.27;6.15;;;;;;;;;;5108125;28;20036;-81
2021/06/25 08:39:26;;;;;;;20.80;6.85;;;;;;;;;;5100612;28;20455;-85
2021/06/25 08:41:53;;;;;;;26.55;7.70;;;;;;;;;;5100685;28;20085;-85
2021/06/25 08:44:23;;;;;;;19.38;5.22;;;;;;;;;;5092711;28;20092;-84
2021/06/25 08:46:49;;;;;;;22.42;6.20;;;;;;;;;;5096325;28;20475;-86
2021/06/25 08:49:22;;;;;;;24.23;6.53;;;;;;;;;;5113235;27;20054;-85
2021/06/25 08:51:49;;;;;;;27.40;7.45;;;;;;;;;;5107116;28;20473;-84
2021/06/25 08:54:15;;;;;;;24.85;6.05;;;;;;;;;;5091528;28;20451;-83
2021/06/25 08:56:42;;;;;;;28.20;6.07;;;;;;;;;;5106208;28;20024;-86
2021/06/25 08:59:08;;;;;;;22.15;5.88;;;;;;;;;;5091023;28;20114;-85
2021/06/25 09:01:37;;;;;;;23.40;7.45;;;;;;;;;;5112541;28;20051;-84
2021/06/25 09:04:07;;;;;;;23.33;5.68;;;;;;;;;;5107120;28;20030;-84
2021/06/25 09:06:33;;;;;;;27.13;5.63;;;;;;;;;;5110995;28;20084;-83
2021/06/25 09:09:20;;;;;;;21.25;5.70;;;;;;;;;;5110260;28;20027;-86
2021/06/25 09:11:46;;;;;;;19.52;5.75;;;;;;;;;;5090407;28;20440;-82
2021/06/25 09:14:15;;;;;;;20.55;5.25;;;;;;;;;;5092396;28;20108;-86
2021/06/25 09:16:42;;;;;;;21.90;5.35;;;;;;;;;;5091207;28;20114;-83
2021/06/25 09:19:18;;;;;;;17.58;4.63;;;;;;;;;;5092366;28;20032;-87
2021/06/25 09:21:58;;;;;;;21.60;6.47;;;;;;;;;;5092288;28;20106;-82
2021/06/25 09:24:25;;;;;;;28.42;7.38;;;;;;;;;;5095944;28;20037;-87
2021/06/25 09:26:58;;;;;;;22.65;5.40;;;;;;;;;;5112817;28;20034;-84
2021/06/25 09:29:25;;;;;;;19.23;5.72;;;;;;;;;;5112208;28;20023;-83
2021/06/25 09:31:58;;;;;;;19.15;5.45;;;;;;;;;;5110927;28;20024;-81
2021/06/25 09:34:37;;;;;;;21.33;6.32;;;;;;;;;;5112316;28;20026;-83
2021/06/25 09:37:04;;;;;;;22.10;5.85;;;;;;;;;;5112613;28;20045;-85
2021/06/25 09:39:30;;;;;;;23.17;5.40;;;;;;;;;;5112214;28;20127;-86
2021/06/25 09:41:57;;;;;;;29.67;6.68;;;;;;;;;;5104457;28;20034;-86
2021/06/25 09:44:25;;;;;;;24.02;5.28;;;;;;;;;;5094675;28;20024;-87
2021/06/25 09:46:53;;;;;;;28.90;6.00;;;;;;;;;;5109917;28;20087;-84
2021/06/25 09:49:37;;;;;;;25.48;6.57;;;;;;;;;;5102371;28;20055;-85
2021/06/25 09:52:04;;;;;;;19.08;5.28;;;;;;;;;;5111796;28;20019;-87
2021/06/25 09:54:31;;;;;;;22.70;5.40;;;;;;;;;;5090070;28;20063;-83
2021/06/25 09:57:06;;;;;;;22.00;5.97;;;;;;;;;;5105825;28;20027;-84
2021/06/25 10:02:27;;;;;;;23.50;5.97;;;;;;;;;;5104797;28;20458;-85
2021/06/25 10:04:55;;;;;;;22.65;5.95;;;;;;;;;;5101872;28;20031;-76
2021/06/25 10:07:25;;;;;;;20.45;5.18;;;;;;;;;;5100771;28;20169;-86
2021/06/25 10:10:01;;;;;;;20.38;5.45;;;;;;;;;;5094768;28;20028;-90
2021/06/25 10:12:28;;;;;;;23.38;5.43;;;;;;;;;;5091436;28;20027;-85
2021/06/25 10:14:55;;;;;;;20.85;4.80;;;;;;;;;;5106998;28;20067;-84
2021/06/25 10:17:26;;;;;;;185.27;23.58;;;;;;;;;;5103374;28;20035;-84
2021/06/25 10:19:54;;;;;;;24.50;6.40;;;;;;;;;;5095689;28;20066;-88
2021/06/25 10:22:25;;;;;;;24.13;5.35;;;;;;;;;;5088677;28;20035;-87
2021/06/25 10:24:52;;;;;;;16.38;3.97;;;;;;;;;;5101480;28;20497;-85
2021/06/25 10:27:19;;;;;;;18.27;5.07;;;;;;;;;;5102509;28;20024;-82
2021/06/25 10:29:45;;;;;;;22.60;5.30;;;;;;;;;;5101517;28;20043;-87
2021/06/25 10:32:12;;;;;;;27.20;7.55;;;;;;;;;;5102550;28;20028;-84
2021/06/25 10:34:47;;;;;;;22.15;5.55;;;;;;;;;;5097411;28;20032;-89
2021/06/25 10:37:24;;;;;;;23.45;5.57;;;;;;;;;;5101030;28;20032;-81
2021/06/25 10:39:50;;;;;;;22.05;4.82;;;;;;;;;;5107878;28;20058;-86
2021/06/25 10:42:17;;;;;;;21.92;5.07;;;;;;;;;;5105985;28;20032;-88
2021/06/25 10:44:45;;;;;;;22.35;4.28;;;;;;;;;;5101906;28;20030;-85
2021/06/25 10:47:30;;;;;;;19.92;5.03;;;;;;;;;;5104455;28;20478;-88
2021/06/25 10:50:01;;;;;;;22.15;4.78;;;;;;;;;;5101643;28;20027;-84
2021/06/25 10:52:28;;;;;;;16.48;4.20;;;;;;;;;;5109700;28;20035;-87
2021/06/25 10:55:16;;;;;;;23.13;5.55;;;;;;;;;;5109546;28;20036;-87
2021/06/25 10:57:52;;;;;;;20.70;5.45;;;;;;;;;;5094961;28;20044;-87
2021/06/25 11:00:25;;;;;;;13.80;4.50;;;;;;;;;;5099415;28;20028;-87
2021/06/25 11:02:51;;;;;;;20.23;5.30;;;;;;;;;;5094210;28;20469;-86
2021/06/25 11:05:27;;;;;;;18.48;4.45;;;;;;;;;;5096296;28;20028;-86
2021/06/25 11:08:16;;;;;;;19.15;5.05;;;;;;;;;;5110962;28;20159;-83
2021/06/25 11:10:55;;;;;;;21.33;4.82;;;;;;;;;;5108107;28;20506;-87
2021/06/25 11:13:22;;;;;;;26.40;5.85;;;;;;;;;;5089772;28;20054;-87
2021/06/25 11:15:50;;;;;;;17.55;4.07;;;;;;;;;;5092121;28;20078;-85
2021/06/25 11:18:17;;;;;;;18.73;4.88;;;;;;;;;;5102668;28;20131;-88
2021/06/25 11:21:02;;;;;;;20.77;5.18;;;;;;;;;;5109660;28;20473;-86
2021/06/25 11:23:53;;;;;;;18.30;4.57;;;;;;;;;;5091176;28;20043;-87
2021/06/25 11:26:19;;;;;;;22.60;7.55;;;;;;;;;;5065468;28;20041;-87
2021/06/25 11:28:46;;;;;;;14.90;4.88;;;;;;;;;;5067607;28;20483;-80
2021/06/25 11:31:22;;;;;;;18.92;5.50;;;;;;;;;;5080561;28;20032;-85
2021/06/25 11:33:48;;;;;;;25.17;5.47;;;;;;;;;;5095153;28;20028;-87
2021/06/25 11:36:19;;;;;;;20.85;5.05;;;;;;;;;;5114108;28;20039;-85
2021/06/25 11:39:10;;;;;;;21.77;5.45;;;;;;;;;;5113180;27;20044;-86
2021/06/25 11:41:46;;;;;;;15.77;3.90;;;;;;;;;;5113665;28;20035;-83
2021/06/25 11:44:19;;;;;;;18.27;4.03;;;;;;;;;;5115628;28;20169;-86
2021/06/25 11:47:04;;;;;;;24.75;5.30;;;;;;;;;;5115539;28;20097;-71
2021/06/25 11:49:37;;;;;;;18.48;6.03;;;;;;;;;;5115378;28;20020;-84
2021/06/25 11:52:05;;;;;;;21.00;5.25;;;;;;;;;;5114006;28;20036;-86
2021/06/25 11:54:33;;;;;;;17.98;4.22;;;;;;;;;;5110443;28;20031;-85
2021/06/25 11:57:03;;;;;;;16.50;5.15;;;;;;;;;;5101569;28;20153;-85
2021/06/25 11:59:29;;;;;;;22.85;5.15;;;;;;;;;;5111582;28;20108;-87
2021/06/25 12:02:00;;;;;;;21.35;5.30;;;;;;;;;;5114029;28;20032;-84
2021/06/25 12:04:40;;;;;;;21.65;4.82;;;;;;;;;;5115010;28;20578;-88
2021/06/25 12:07:08;;;;;;;22.02;5.82;;;;;;;;;;5115260;28;20032;-85
2021/06/25 12:09:38;;;;;;;24.17;4.80;;;;;;;;;;5115075;28;20027;-84
2021/06/25 12:12:04;;;;;;;21.65;4.55;;;;;;;;;;5115224;28;20035;-87
2021/06/25 12:14:41;;;;;;;19.02;5.25;;;;;;;;;;5112153;28;20036;-84
2021/06/25 12:17:08;;;;;;;16.75;4.05;;;;;;;;;;5100221;28;20035;-85
2021/06/25 12:19:34;;;;;;;21.35;4.47;;;;;;;;;;5112914;28;20042;-85
2021/06/25 12:22:09;;;;;;;23.52;5.68;;;;;;;;;;5115162;28;20038;-85
2021/06/25 12:24:54;;;;;;;23.20;4.85;;;;;;;;;;5113787;28;20028;-84
2021/06/25 12:27:34;;;;;;;22.30;5.70;;;;;;;;;;5114865;27;20025;-84
2021/06/25 12:30:05;;;;;;;35.97;8.93;;;;;;;;;;5114483;28;20471;-86
2021/06/25 12:32:34;;;;;;;22.60;5.35;;;;;;;;;;5114513;27;20471;-84
2021/06/25 12:35:00;;;;;;;24.00;5.25;;;;;;;;;;5113331;28;20028;-85
2021/06/25 12:37:29;;;;;;;21.10;5.43;;;;;;;;;;5113333;28;20474;-77
2021/06/25 12:39:58;;;;;;;21.70;5.35;;;;;;;;;;5114265;28;20118;-83
2021/06/25 12:42:24;;;;;;;19.17;6.22;;;;;;;;;;5114380;28;20031;-83
2021/06/25 12:44:50;;;;;;;22.23;5.00;;;;;;;;;;5114843;28;20035;-86
2021/06/25 12:47:16;;;;;;;20.98;5.60;;;;;;;;;;5113959;28;20473;-84
2021/06/25 12:49:45;;;;;;;29.13;15.10;;;;;;;;;;5109095;28;20034;-84
2021/06/25 12:52:22;;;;;;;30.58;19.85;;;;;;;;;;5103522;28;20074;-82
2021/06/25 12:54:50;;;;;;;21.25;4.93;;;;;;;;;;5107854;28;20485;-82
2021/06/25 12:57:16;;;;;;;21.23;5.35;;;;;;;;;;5113898;28;20032;-81
2021/06/25 12:59:47;;;;;;;19.92;4.75;;;;;;;;;;5114449;28;20387;-82
2021/06/25 13:02:13;;;;;;;21.02;4.85;;;;;;;;;;5110643;28;20038;-82
2021/06/25 13:04:41;;;;;;;20.58;5.47;;;;;;;;;;5101005;28;20020;-83
2021/06/25 13:07:08;;;;;;;25.33;5.03;;;;;;;;;;5093645;28;20043;-81
2021/06/25 13:09:39;;;;;;;62.13;10.35;;;;;;;;;;5097949;28;20028;-81
2021/06/25 13:12:09;;;;;;;128.90;17.70;;;;;;;;;;5114134;28;20478;-82
2021/06/25 13:14:43;;;;;;;76.68;9.20;;;;;;;;;;5108800;28;20036;-82
2021/06/25 13:17:10;;;;;;;46.28;7.30;;;;;;;;;;5093095;28;20398;-82
2021/06/25 13:19:55;;;;;;;18.67;4.70;;;;;;;;;;5098896;28;20394;-81
2021/06/25 13:22:38;;;;;;;13.70;3.90;;;;;;;;;;5106795;28;20035;-82
2021/06/25 13:25:23;;;;;;;14.98;4.10;;;;;;;;;;5111738;28;20063;-83
2021/06/25 13:27:53;;;;;;;33.40;5.70;;;;;;;;;;5097847;28;20028;-81
2021/06/25 13:30:26;;;;;;;21.38;5.03;;;;;;;;;;5105237;28;20024;-81
2021/06/25 13:32:52;;;;;;;22.80;5.18;;;;;;;;;;5113472;28;20027;-81
2021/06/25 13:35:21;;;;;;;26.65;5.20;;;;;;;;;;5113624;28;20036;-83
2021/06/25 13:37:48;;;;;;;22.63;4.75;;;;;;;;;;5112141;28;20437;-80
2021/06/25 13:40:25;;;;;;;20.83;4.82;;;;;;;;;;5113497;28;20462;-81
2021/06/25 13:43:10;;;;;;;19.27;5.10;;;;;;;;;;5113875;28;20486;-82
2021/06/25 13:45:37;;;;;;;16.40;5.05;;;;;;;;;;5113062;28;20042;-85
2021/06/25 13:48:03;;;;;;;23.25;6.10;;;;;;;;;;5112100;28;20024;-86
2021/06/25 13:50:48;;;;;;;17.35;4.85;;;;;;;;;;5113421;28;20100;-85
2021/06/25 13:53:33;;;;;;;24.50;5.03;;;;;;;;;;5112166;28;20028;-86
2021/06/25 13:56:01;;;;;;;17.33;3.97;;;;;;;;;;5112474;28;20377;-85
2021/06/25 13:58:27;;;;;;;18.90;5.05;;;;;;;;;;5112836;28;20036;-85
2021/06/25 14:00:54;;;;;;;20.13;5.07;;;;;;;;;;5113298;28;20024;-84
2021/06/25 14:03:22;;;;;;;18.65;5.10;;;;;;;;;;5112823;28;20102;-80
2021/06/25 14:05:57;;;;;;;20.10;6.22;;;;;;;;;;5112211;28;20020;-79
2021/06/25 14:08:23;;;;;;;24.50;4.07;;;;;;;;;;5112064;28;20024;-85
2021/06/25 14:11:08;;;;;;;18.45;5.05;;;;;;;;;;5113230;28;20055;-86
2021/06/25 14:13:38;;;;;;;17.35;4.45;;;;;;;;;;5112922;28;20031;-81
2021/06/25 14:16:23;;;;;;;24.33;4.85;;;;;;;;;;5112852;28;20024;-82
2021/06/25 14:18:50;;;;;;;22.27;4.28;;;;;;;;;;5112864;28;20034;-84
2021/06/25 14:21:17;;;;;;;15.85;4.47;;;;;;;;;;5113216;28;20090;-83
2021/06/25 14:23:44;;;;;;;18.48;5.35;;;;;;;;;;5112459;28;20059;-84
2021/06/25 14:26:10;;;;;;;17.15;4.18;;;;;;;;;;5112915;28;20020;-84
2021/06/25 14:28:36;;;;;;;22.00;5.10;;;;;;;;;;5112689;28;20015;-79
2021/06/25 14:31:02;;;;;;;17.17;5.38;;;;;;;;;;5112572;28;20024;-84
2021/06/25 14:33:29;;;;;;;17.67;4.47;;;;;;;;;;5112496;28;20107;-85
2021/06/25 14:35:55;;;;;;;21.92;5.20;;;;;;;;;;5112689;28;20478;-84
2021/06/25 14:38:22;;;;;;;23.77;5.53;;;;;;;;;;5112275;28;20485;-84
2021/06/25 14:40:49;;;;;;;18.58;4.18;;;;;;;;;;5112572;28;20031;-83
2021/06/25 14:43:15;;;;;;;19.25;4.63;;;;;;;;;;5112720;28;20024;-85
2021/06/25 14:45:41;;;;;;;16.08;5.90;;;;;;;;;;5112438;28;20024;-83
2021/06/25 14:48:07;;;;;;;21.27;4.88;;;;;;;;;;5112639;28;20049;-84
2021/06/25 14:50:34;;;;;;;18.17;4.45;;;;;;;;;;5112700;28;20058;-85